Ahlhorn Air Force Base ETNA

Flugplatz Daten

Name: Ahlhorn Air Force Base

Ident: ETNA

Lat: 52,88299942

Long: 8,232999802

Platzhöhe: 162 ft

IataCode:

City: Ahlhorn

Metar

2013/02/19 07:50
LICR 190750Z 03007KT 350V060 9999 SCT020 BKN065 11/07 Q1013 OPERATIONAL INFORMATION-LICZ REPORT V/A/C/ FROM ETNA OF FEE BLE INTENSITY OVER THE FIELD BETWEEN FL060 AND FL140 RMK VIS MIN 9999

Taf

Gewünschte Webcam nicht vorhanden? Dann fügen Sie eine hinzu. Sie wird dann so schnell wie möglich freigeschaltet
Url: Title: